Todos
Hasslosa Air Base Airport (Hasslosa) ESFH Condições meteorológicas
There is no TAF data available at ESFH. Showing TAF data for ESIB (20 mi O).
ESIB Previsão da área de terminais (sem dados para ESFH)
| Date | Time (CEST) | Flight Rules | Wind Dir. | Speed | Type | Height AGL (ft) | Visibility | Remarks | ||||||
|---|---|---|---|---|---|---|---|---|---|---|---|---|---|---|
There is no METAR data available at ESFH. Showing METAR data for ESIB (20 mi O).
Histórico recente de METAR ESIB (sem dados para ESFH)
| Date | Time (CEST) | Flight Rules | Wind Dir. | Speed | Type | Height AGL (ft) | Visibility | Temp (°C) | Temp (°F) | Dew Point (°C) | Dew Point (°F) | Rel. Humid. | Pressure | Density Altitude | Remarks |
|---|---|---|---|---|---|---|---|---|---|---|---|---|---|---|---|
| 06-Set | 14:20 | VFR | 260° | 13 kt | 10000 meters | 19° | 66° | 9° | 48° | 52% | 1017 mb | 549 ft | |||
| 06-Set | 13:50 | VFR | 260° | 11 kt | 10000 meters | 19° | 66° | 11° | 51° | 60% | 1017 mb | 549 ft | |||
| 06-Set | 13:20 | VFR | 270° | 11 kt | 10000 meters | 19° | 66° | 11° | 51° | 60% | 1017 mb | 549 ft | |||
| 06-Set | 12:50 | VFR | 270° | 10 kt | 10000 meters | 18° | 64° | 10° | 50° | 59% | 1016 mb | 459 ft | |||
| 06-Set | 12:20 | VFR | 270° | 8 kt | 10000 meters | 17° | 62° | 11° | 51° | 68% | 1016 mb | 339 ft | |||
| 06-Set | 11:50 | VFR | 260° | 8 kt | 10000 meters | 17° | 62° | 11° | 51° | 68% | 1016 mb | 339 ft | |||
| 06-Set | 11:20 | VFR | 270° | 6 kt | 10000 meters | 16° | 60° | 11° | 51° | 72% | 1016 mb | 219 ft | |||
| 06-Set | 10:50 | VFR | 270° | 7 kt | 10000 meters | 15° | 59° | 11° | 51° | 77% | 1016 mb | 99 ft | |||
| 06-Set | 10:20 | VFR | 270° | 9 kt | 10000 meters | 15° | 59° | 11° | 51° | 77% | 1015 mb | 128 ft | |||
| 06-Set | 09:50 | VFR | 260° | 7 kt | 10000 meters | 14° | 57° | 11° | 51° | 82% | 1015 mb | 8 ft | |||
| 06-Set | 09:20 | VFR | 260° | 6 kt | 10000 meters | 14° | 57° | 12° | 53° | 88% | 1015 mb | 8 ft | |||
| 06-Set | 08:50 | VFR | 270° | 5 kt | 10000 meters | 14° | 57° | 13° | 55° | 94% | 1015 mb | 8 ft | |||
| 06-Set | 08:20 | VFR | 250° | 5 kt | 10000 meters | 13° | 55° | 13° | 55° | 100% | 1014 mb | -82 ft | |||
| 06-Set | 07:50 | VFR | 230° | 3 kt | 10000 meters | 12° | 53° | 12° | 53° | 100% | 1014 mb | -202 ft | |||
| 06-Set | 07:20 | VFR | 210° | 3 kt | 10000 meters |
9° | 48° | 9° | 48° | 100% | 1014 mb | -562 ft | |||
| 06-Set | 06:50 | LIFR | Variable | 2 kt | <1100 meters |
8° | 46° | 8° | 46° | 100% | 1013 mb | -653 ft | Fog | ||
| 06-Set | 06:20 | BCAT1 | 180° | 5 kt | <550 meters |
8° | 46° | 8° | 46° | 100% | 1013 mb | -653 ft | Mist | ||
| 06-Set | 05:50 | BCAT1 | 200° | 5 kt | <600 meters |
8° | 46° | 8° | 46° | 100% | 1013 mb | -653 ft | Mist | ||
| 06-Set | 05:20 | BCAT1 | 190° | 4 kt | <600 meters |
8° | 46° | 8° | 46° | 100% | 1012 mb | -623 ft | Mist | ||
| 06-Set | 04:50 | IFR | 180° | 4 kt | 2700 meters |
8° | 46° | 8° | 46° | 100% | 1012 mb | -623 ft | Mist | ||
| 06-Set | 04:20 | VFR | 210° | 5 kt | 10000 meters | 10° | 50° | 9° | 48° | 93% | 1012 mb | -383 ft | |||
| 06-Set | 03:50 | VFR | 220° | 6 kt | 10000 meters | 10° | 50° | 10° | 50° | 100% | 1012 mb | -383 ft | |||
| 06-Set | 03:20 | VFR | 230° | 5 kt | 10000 meters | 11° | 51° | 10° | 50° | 94% | 1011 mb | -234 ft | |||
| 06-Set | 02:50 | VFR | 270° | 7 kt | 10000 meters | 13° | 55° | 12° | 53° | 94% | 1011 mb | 6 ft |
Entrar
| Seu navegador não suporta. atualize seu navegador |
